createdAt,value
2022-11-18T00:00:26.056Z,2.5
2022-11-18T00:01:34.380Z,2.5
2022-11-18T00:02:42.809Z,2.5
2022-11-18T00:03:51.261Z,2.3
2022-11-18T00:04:59.629Z,2.3
2022-11-18T00:06:08.000Z,2.3
2022-11-18T00:07:16.566Z,2
2022-11-18T00:08:24.838Z,2
2022-11-18T00:09:33.162Z,2
2022-11-18T00:10:41.717Z,2
2022-11-18T00:11:50.037Z,2
2022-11-18T00:12:58.367Z,2
2022-11-18T00:14:06.903Z,1.7
2022-11-18T00:15:15.238Z,1.7
2022-11-18T00:16:23.583Z,1.7
2022-11-18T00:17:32.110Z,1.8
2022-11-18T00:18:40.459Z,1.8
2022-11-18T00:19:48.800Z,1.8
2022-11-18T00:20:57.338Z,2
2022-11-18T00:22:05.703Z,2
2022-11-18T00:23:14.027Z,2
2022-11-18T00:24:22.582Z,2.4
2022-11-18T00:25:30.899Z,2.4
2022-11-18T00:26:39.234Z,2.4
2022-11-18T00:27:47.776Z,2.3
2022-11-18T00:28:56.108Z,2.3
2022-11-18T00:30:04.447Z,2.3
2022-11-18T00:31:12.973Z,2.2
2022-11-18T00:32:21.298Z,2.2
2022-11-18T00:33:29.637Z,2.2
2022-11-18T00:34:38.178Z,2.6
2022-11-18T00:35:46.507Z,2.6
2022-11-18T00:36:54.842Z,2.6
2022-11-18T00:38:03.403Z,2.9
2022-11-18T00:39:11.725Z,2.9
2022-11-18T00:40:20.057Z,2.9
2022-11-18T00:41:28.583Z,2.6
2022-11-18T00:42:36.913Z,2.6
2022-11-18T00:43:45.254Z,2.6
2022-11-18T00:44:53.804Z,2.8
2022-11-18T00:46:02.116Z,2.8
2022-11-18T00:47:10.452Z,2.8
2022-11-18T00:48:18.989Z,3.3
2022-11-18T00:49:27.324Z,3.3
2022-11-18T00:50:35.659Z,3.3
2022-11-18T00:51:44.198Z,3.2
2022-11-18T00:52:52.531Z,3.2
2022-11-18T00:54:00.894Z,3.2
2022-11-18T00:55:09.410Z,3.2
2022-11-18T00:56:17.749Z,3.2
2022-11-18T00:57:26.088Z,3.2
2022-11-18T00:58:34.642Z,4
2022-11-18T00:59:42.954Z,4
2022-11-18T01:00:51.321Z,4
2022-11-18T01:01:59.818Z,3.6
2022-11-18T01:03:08.133Z,3.6
2022-11-18T01:04:16.469Z,3.6
2022-11-18T01:05:25.005Z,3.5
2022-11-18T01:06:33.340Z,3.5
2022-11-18T01:07:41.719Z,3.5
2022-11-18T01:08:50.235Z,3.7
2022-11-18T01:09:58.588Z,3.7
2022-11-18T01:11:06.891Z,3.7
2022-11-18T01:12:15.430Z,3.8
2022-11-18T01:13:23.772Z,3.8
2022-11-18T01:14:32.099Z,3.8
2022-11-18T01:15:40.638Z,3.4
2022-11-18T01:16:48.969Z,3.4
2022-11-18T01:17:57.322Z,3.4
2022-11-18T01:19:05.866Z,3.4
2022-11-18T01:20:14.190Z,3.4
2022-11-18T01:21:22.524Z,3.4
2022-11-18T01:22:31.089Z,3.2
2022-11-18T01:23:39.438Z,3.2
2022-11-18T01:24:47.769Z,3.2
2022-11-18T01:25:56.339Z,3.2
2022-11-18T01:27:04.649Z,3.2
2022-11-18T01:28:12.988Z,3.2
2022-11-18T01:29:21.549Z,2.9
2022-11-18T01:30:29.895Z,2.9
2022-11-18T01:31:50.053Z,2.9
2022-11-18T01:32:46.758Z,3.2
2022-11-18T01:33:55.098Z,3.2
2022-11-18T01:35:03.426Z,3.2
2022-11-18T01:36:11.963Z,2.9
2022-11-18T01:37:20.301Z,2.9
2022-11-18T01:38:28.642Z,2.9
2022-11-18T01:39:37.180Z,3
2022-11-18T01:40:45.529Z,3
2022-11-18T01:41:54.436Z,3
2022-11-18T01:43:02.962Z,3
2022-11-18T01:44:11.305Z,3
2022-11-18T01:45:19.645Z,3
2022-11-18T01:46:28.177Z,3.1
2022-11-18T01:47:36.537Z,3.1
2022-11-18T01:48:44.865Z,3.1
2022-11-18T01:49:53.401Z,3.1
2022-11-18T01:51:01.734Z,3.1
2022-11-18T01:52:10.051Z,3.1
2022-11-18T01:53:18.592Z,2.8
2022-11-18T01:54:26.938Z,2.8
2022-11-18T01:55:35.270Z,2.8
2022-11-18T01:56:43.812Z,2.9
2022-11-18T01:57:52.167Z,2.9
2022-11-18T01:59:00.485Z,2.9
2022-11-18T02:00:09.032Z,2.8
2022-11-18T02:01:17.414Z,2.8
2022-11-18T02:02:25.700Z,2.8
2022-11-18T02:03:34.240Z,2.7
2022-11-18T02:04:42.581Z,2.7
2022-11-18T02:05:50.907Z,2.7
2022-11-18T02:06:59.504Z,3
2022-11-18T02:08:07.773Z,3
2022-11-18T02:09:16.522Z,3
2022-11-18T02:10:24.656Z,3.4
2022-11-18T02:11:33.039Z,3.4
2022-11-18T02:12:41.320Z,3.4
2022-11-18T02:13:49.900Z,3.3
2022-11-18T02:14:58.206Z,3.3
2022-11-18T02:16:06.533Z,3.3
2022-11-18T02:17:15.070Z,3.3
2022-11-18T02:18:23.406Z,3.3
2022-11-18T02:19:31.742Z,3.3
2022-11-18T02:20:40.294Z,3.9
2022-11-18T02:21:48.625Z,3.9
2022-11-18T02:22:56.970Z,3.9
2022-11-18T02:24:05.528Z,3.5
2022-11-18T02:25:13.879Z,3.5
2022-11-18T02:26:22.194Z,3.5
2022-11-18T02:27:30.745Z,3.5
2022-11-18T02:28:39.085Z,3.5
2022-11-18T02:29:47.441Z,3.5
2022-11-18T02:30:55.957Z,3.5
2022-11-18T02:32:04.315Z,3.5
2022-11-18T02:33:12.639Z,3.5
2022-11-18T02:34:21.182Z,3.5
2022-11-18T02:35:29.518Z,3.5
2022-11-18T02:36:37.852Z,3.5
2022-11-18T02:37:46.398Z,3.1
2022-11-18T02:38:54.737Z,3.1
2022-11-18T02:40:03.065Z,3.1
2022-11-18T02:41:11.612Z,3
2022-11-18T02:42:19.946Z,3
2022-11-18T02:43:28.296Z,3
2022-11-18T02:44:36.851Z,3.4
2022-11-18T02:45:45.206Z,3.4
2022-11-18T02:46:53.507Z,3.4
2022-11-18T02:48:02.053Z,3.8
2022-11-18T02:49:10.407Z,3.8
2022-11-18T02:50:18.739Z,3.8
2022-11-18T02:51:27.283Z,3.4
2022-11-18T02:52:35.617Z,3.4
2022-11-18T02:53:43.956Z,3.4
2022-11-18T02:54:52.495Z,3.3
2022-11-18T02:56:00.838Z,3.3
2022-11-18T02:57:09.163Z,3.3
2022-11-18T02:58:17.702Z,3
2022-11-18T02:59:26.040Z,3
2022-11-18T03:00:34.379Z,3
2022-11-18T03:01:43.128Z,2.7
2022-11-18T03:02:51.245Z,2.7
2022-11-18T03:03:59.589Z,2.7
2022-11-18T03:05:08.133Z,2.8
2022-11-18T03:06:16.459Z,2.8
2022-11-18T03:07:24.797Z,2.8
2022-11-18T03:08:33.328Z,2.6
2022-11-18T03:09:41.671Z,2.6
2022-11-18T03:10:50.007Z,2.6
2022-11-18T03:11:58.551Z,2.8
2022-11-18T03:13:06.882Z,2.8
2022-11-18T03:14:15.233Z,2.8
2022-11-18T03:15:23.775Z,2.6
2022-11-18T03:16:32.104Z,2.6
2022-11-18T03:17:40.457Z,2.6
2022-11-18T03:18:48.980Z,2.9
2022-11-18T03:19:57.327Z,2.9
2022-11-18T03:21:05.663Z,2.9
2022-11-18T03:22:14.196Z,2.7
2022-11-18T03:23:22.525Z,2.7
2022-11-18T03:24:30.861Z,2.7
2022-11-18T03:25:39.409Z,2.6
2022-11-18T03:26:47.746Z,2.6
2022-11-18T03:27:56.082Z,2.6
2022-11-18T03:29:04.631Z,2.3
2022-11-18T03:30:12.974Z,2.3
2022-11-18T03:31:21.287Z,2.3
2022-11-18T03:32:29.834Z,2.2
2022-11-18T03:33:38.209Z,2.2
2022-11-18T03:34:46.506Z,2.2
2022-11-18T03:35:55.035Z,2.1
2022-11-18T03:37:07.734Z,2.1
2022-11-18T03:38:11.699Z,2.1
2022-11-18T03:39:20.243Z,2.2
2022-11-18T03:40:28.573Z,2.2
2022-11-18T03:41:36.912Z,2.2
2022-11-18T03:42:45.443Z,2.1
2022-11-18T03:43:53.787Z,2.1
2022-11-18T03:45:02.125Z,2.1
2022-11-18T03:46:10.651Z,1.9
2022-11-18T03:47:18.982Z,1.9
2022-11-18T03:48:27.321Z,1.9
2022-11-18T03:49:35.895Z,1.8
2022-11-18T03:50:44.192Z,1.8
2022-11-18T03:51:52.534Z,1.8
2022-11-18T03:53:01.074Z,1.4
2022-11-18T03:54:09.429Z,1.4
2022-11-18T03:55:17.777Z,1.4
2022-11-18T03:56:26.317Z,1.5
2022-11-18T03:57:34.648Z,1.5
2022-11-18T03:58:42.996Z,1.5
2022-11-18T03:59:51.530Z,1.5
2022-11-18T04:00:59.865Z,1.5
2022-11-18T04:02:08.237Z,1.5
2022-11-18T04:03:16.738Z,1.4
2022-11-18T04:04:25.070Z,1.4
2022-11-18T04:05:33.429Z,1.4
2022-11-18T04:06:41.940Z,1.3
2022-11-18T04:07:50.278Z,1.3
2022-11-18T04:08:58.619Z,1.3
2022-11-18T04:10:07.144Z,1.8
2022-11-18T04:11:15.478Z,1.8
2022-11-18T04:12:23.791Z,1.8
2022-11-18T04:13:32.344Z,1.5
2022-11-18T04:14:40.682Z,1.5
2022-11-18T04:15:49.007Z,1.5
2022-11-18T04:16:57.551Z,1.8
2022-11-18T04:18:05.878Z,1.8
2022-11-18T04:19:14.226Z,1.8
2022-11-18T04:20:22.749Z,2
2022-11-18T04:21:31.112Z,2
2022-11-18T04:22:39.412Z,2
2022-11-18T04:23:47.952Z,2.3
2022-11-18T04:24:56.310Z,2.3
2022-11-18T04:26:04.637Z,2.3
2022-11-18T04:27:13.175Z,2.2
2022-11-18T04:28:21.508Z,2.2
2022-11-18T04:29:29.840Z,2.2
2022-11-18T04:30:38.373Z,2.5
2022-11-18T04:31:46.704Z,2.5
2022-11-18T04:32:55.037Z,2.5
2022-11-18T04:34:03.981Z,2.4
2022-11-18T04:35:13.717Z,2.4
2022-11-18T04:36:27.536Z,2.4
2022-11-18T04:37:36.639Z,2.7
2022-11-18T04:38:44.932Z,2.7
2022-11-18T04:39:53.299Z,2.7
2022-11-18T04:41:01.857Z,2.2
2022-11-18T04:42:10.200Z,2.2
2022-11-18T04:43:18.528Z,2.2
2022-11-18T04:44:27.084Z,2.8
2022-11-18T04:45:35.413Z,2.8
2022-11-18T04:46:43.746Z,2.8
2022-11-18T04:47:52.278Z,2.9
2022-11-18T04:49:00.625Z,2.9
2022-11-18T04:50:09.158Z,2.9
2022-11-18T04:51:17.703Z,6.6
2022-11-18T04:52:26.035Z,6.6
2022-11-18T04:53:34.446Z,6.6
2022-11-18T04:54:42.904Z,4.1
2022-11-18T04:55:51.241Z,4.1
2022-11-18T04:56:59.599Z,4.1
2022-11-18T04:58:08.133Z,3.4
2022-11-18T04:59:17.381Z,3.4
2022-11-18T05:00:25.338Z,3.4
2022-11-18T05:01:33.940Z,3.7
2022-11-18T05:02:42.228Z,3.7
2022-11-18T05:03:50.960Z,3.7
2022-11-18T05:04:59.108Z,4.1
2022-11-18T05:06:07.440Z,4.1
2022-11-18T05:07:15.900Z,4.1
2022-11-18T05:08:24.334Z,5.6
2022-11-18T05:09:32.719Z,5.6
2022-11-18T05:10:41.001Z,5.6
2022-11-18T05:11:49.545Z,16.5
2022-11-18T05:12:57.877Z,16.5
2022-11-18T05:14:06.212Z,16.5
2022-11-18T05:15:14.754Z,12.2
2022-11-18T05:16:23.070Z,12.2
2022-11-18T05:17:31.403Z,12.2
2022-11-18T05:18:39.954Z,5.5
2022-11-18T05:19:48.280Z,5.5
2022-11-18T05:20:56.613Z,5.5
2022-11-18T05:22:05.139Z,4.7
2022-11-18T05:23:13.470Z,4.7
2022-11-18T05:24:21.821Z,4.7
2022-11-18T05:25:30.379Z,4.2
2022-11-18T05:26:38.686Z,4.2
2022-11-18T05:27:47.015Z,4.2
2022-11-18T05:28:55.560Z,8.3
2022-11-18T05:30:03.892Z,8.3
2022-11-18T05:31:12.219Z,8.3
2022-11-18T05:32:20.752Z,18
2022-11-18T05:33:29.117Z,18
2022-11-18T05:34:37.423Z,18
2022-11-18T05:35:46.810Z,19.799999
2022-11-18T05:36:54.291Z,19.799999
2022-11-18T05:38:02.616Z,19.799999
2022-11-18T05:39:11.180Z,25.299999
2022-11-18T05:40:19.511Z,25.299999
2022-11-18T05:41:27.862Z,25.299999
2022-11-18T05:42:36.372Z,6.1
2022-11-18T05:43:44.712Z,6.1
2022-11-18T05:44:57.644Z,6.1
2022-11-18T05:46:01.583Z,6.1
2022-11-18T05:47:09.911Z,6.1
2022-11-18T05:48:18.238Z,6.1
2022-11-18T05:49:26.793Z,24.799999
2022-11-18T05:50:35.126Z,24.799999
2022-11-18T05:51:43.472Z,24.799999
2022-11-18T05:52:52.005Z,4.6
2022-11-18T05:54:00.339Z,4.6
2022-11-18T05:55:08.670Z,4.6
2022-11-18T05:56:17.214Z,4.9
2022-11-18T05:57:25.568Z,4.9
2022-11-18T05:58:33.885Z,4.9
2022-11-18T05:59:42.425Z,4.6
2022-11-18T06:00:50.762Z,4.6
2022-11-18T06:01:59.086Z,4.6
2022-11-18T06:03:07.692Z,4.8
2022-11-18T06:04:15.967Z,4.8
2022-11-18T06:05:24.293Z,4.8
2022-11-18T06:06:32.850Z,4.8
2022-11-18T06:07:41.215Z,4.8
2022-11-18T06:08:49.510Z,4.8
2022-11-18T06:10:02.205Z,4
2022-11-18T06:11:06.380Z,4
2022-11-18T06:12:14.697Z,4
2022-11-18T06:13:23.392Z,4.7
2022-11-18T06:14:31.577Z,4.7
2022-11-18T06:15:39.908Z,4.7
2022-11-18T06:16:48.445Z,4.6
2022-11-18T06:17:56.776Z,4.6
2022-11-18T06:19:05.111Z,4.6
2022-11-18T06:20:13.651Z,4.3
2022-11-18T06:21:21.975Z,4.3
2022-11-18T06:22:30.317Z,4.3
2022-11-18T06:23:38.861Z,4.6
2022-11-18T06:24:47.188Z,4.6
2022-11-18T06:25:55.514Z,4.6
2022-11-18T06:27:04.044Z,3.9
2022-11-18T06:28:12.372Z,3.9
2022-11-18T06:29:26.122Z,3.9
2022-11-18T06:30:29.471Z,4.2
2022-11-18T06:31:37.794Z,4.2
2022-11-18T06:32:46.124Z,4.2
2022-11-18T06:33:54.661Z,4.1
2022-11-18T06:35:02.994Z,4.1
2022-11-18T06:36:11.325Z,4.1
2022-11-18T06:37:19.866Z,4.3
2022-11-18T06:38:28.205Z,4.3
2022-11-18T06:39:36.527Z,4.3
2022-11-18T06:40:45.064Z,4.3
2022-11-18T06:41:53.401Z,4.3
2022-11-18T06:43:01.739Z,4.3
2022-11-18T06:44:10.276Z,6.6
2022-11-18T06:45:18.701Z,6.6
2022-11-18T06:46:26.934Z,6.6
2022-11-18T06:47:35.479Z,4.9
2022-11-18T06:48:43.824Z,4.9
2022-11-18T06:49:52.153Z,4.9
2022-11-18T06:51:00.692Z,5.4
2022-11-18T06:52:09.025Z,5.4
2022-11-18T06:53:17.357Z,5.4
2022-11-18T06:54:25.915Z,5.6
2022-11-18T06:55:34.324Z,5.6
2022-11-18T06:56:42.654Z,5.6
2022-11-18T06:57:51.200Z,8.5
2022-11-18T06:58:59.539Z,8.5
2022-11-18T07:00:07.866Z,8.5
2022-11-18T07:01:16.640Z,8.6
2022-11-18T07:02:24.738Z,8.6
2022-11-18T07:03:33.087Z,8.6
2022-11-18T07:04:41.626Z,7
2022-11-18T07:05:49.961Z,7
2022-11-18T07:06:58.343Z,7
2022-11-18T07:08:06.835Z,6.6
2022-11-18T07:09:15.314Z,6.6
2022-11-18T07:10:23.507Z,6.6
2022-11-18T07:11:32.055Z,7.2
2022-11-18T07:12:40.380Z,7.2
2022-11-18T07:13:48.719Z,7.2
2022-11-18T07:14:57.266Z,10.9
2022-11-18T07:16:05.600Z,10.9
2022-11-18T07:17:13.962Z,10.9
2022-11-18T07:18:22.471Z,7.6
2022-11-18T07:19:35.552Z,7.6
2022-11-18T07:20:39.142Z,7.6
2022-11-18T07:21:47.672Z,4.2
2022-11-18T07:22:56.007Z,4.2
2022-11-18T07:24:04.349Z,4.2
2022-11-18T07:25:12.884Z,3.7
2022-11-18T07:26:21.220Z,3.7
2022-11-18T07:27:29.561Z,3.7
2022-11-18T07:28:38.107Z,3.6
2022-11-18T07:29:46.434Z,3.6
2022-11-18T07:30:54.767Z,3.6
2022-11-18T07:32:03.306Z,3.9
2022-11-18T07:33:11.653Z,3.9
2022-11-18T07:34:19.979Z,3.9
2022-11-18T07:35:28.517Z,3.9
2022-11-18T07:36:36.861Z,3.9
2022-11-18T07:37:45.175Z,3.9
2022-11-18T07:38:53.724Z,3.5
2022-11-18T07:40:02.058Z,3.5
2022-11-18T07:41:10.386Z,3.5
2022-11-18T07:42:18.933Z,3.5
2022-11-18T07:43:27.270Z,3.5
2022-11-18T07:44:35.620Z,3.5
2022-11-18T07:45:44.160Z,4.2
2022-11-18T07:46:52.480Z,4.2
2022-11-18T07:48:00.815Z,4.2
2022-11-18T07:49:09.439Z,4
2022-11-18T07:50:17.730Z,4
2022-11-18T07:51:26.063Z,4
2022-11-18T07:52:34.587Z,5.4
2022-11-18T07:53:42.926Z,5.4
2022-11-18T07:54:51.257Z,5.4
2022-11-18T07:55:59.793Z,6.2
2022-11-18T07:57:08.135Z,6.2
2022-11-18T07:58:16.463Z,6.2
2022-11-18T07:59:25.007Z,4
2022-11-18T08:00:33.351Z,4
2022-11-18T08:01:41.873Z,4
2022-11-18T08:02:50.225Z,3.6
2022-11-18T08:03:58.568Z,3.6
2022-11-18T08:05:06.962Z,3.6
2022-11-18T08:06:15.452Z,4.7
2022-11-18T08:07:23.858Z,4.7
2022-11-18T08:08:32.127Z,4.7
2022-11-18T08:09:40.665Z,4.9
2022-11-18T08:10:48.991Z,4.9
2022-11-18T08:11:57.322Z,4.9
2022-11-18T08:13:05.865Z,6.8
2022-11-18T08:14:14.206Z,6.8
2022-11-18T08:15:22.531Z,6.8
2022-11-18T08:16:31.079Z,7.7
2022-11-18T08:17:39.402Z,7.7
2022-11-18T08:18:47.752Z,7.7
2022-11-18T08:19:56.288Z,11
2022-11-18T08:21:04.657Z,11
2022-11-18T08:22:12.961Z,11
2022-11-18T08:23:21.507Z,7.8
2022-11-18T08:24:29.846Z,7.8
2022-11-18T08:25:38.172Z,7.8
2022-11-18T08:26:46.708Z,8
2022-11-18T08:27:55.038Z,8
2022-11-18T08:29:03.400Z,8
2022-11-18T08:30:11.927Z,6.3
2022-11-18T08:31:20.253Z,6.3
2022-11-18T08:32:28.584Z,6.3
2022-11-18T08:33:37.135Z,7.6
2022-11-18T08:34:45.468Z,7.6
2022-11-18T08:35:53.795Z,7.6
2022-11-18T08:37:02.485Z,15.2
2022-11-18T08:38:10.660Z,15.2
2022-11-18T08:39:19.298Z,15.2
2022-11-18T08:40:27.560Z,16
2022-11-18T08:41:35.902Z,16
2022-11-18T08:42:44.236Z,16
2022-11-18T08:43:52.780Z,7
2022-11-18T08:45:01.107Z,7
2022-11-18T08:46:09.436Z,7
2022-11-18T08:47:17.977Z,6.9
2022-11-18T08:48:26.310Z,6.9
2022-11-18T08:49:34.646Z,6.9
2022-11-18T08:50:43.182Z,6.3
2022-11-18T08:51:51.509Z,6.3
2022-11-18T08:52:59.872Z,6.3
2022-11-18T08:54:08.392Z,6.2
2022-11-18T08:55:16.716Z,6.2
2022-11-18T08:56:25.065Z,6.2
2022-11-18T08:57:33.602Z,6.4
2022-11-18T08:58:41.955Z,6.4
2022-11-18T08:59:50.279Z,6.4
2022-11-18T09:00:58.818Z,6.1
2022-11-18T09:02:07.228Z,6.1
2022-11-18T09:03:15.481Z,6.1
2022-11-18T09:04:24.026Z,5.8
2022-11-18T09:05:32.358Z,5.8
2022-11-18T09:06:40.680Z,5.8
2022-11-18T09:07:49.215Z,5.5
2022-11-18T09:09:00.722Z,5.5
2022-11-18T09:10:05.888Z,5.5
2022-11-18T09:11:14.423Z,6.6
2022-11-18T09:12:22.746Z,6.6
2022-11-18T09:13:53.572Z,6.6
2022-11-18T09:15:47.965Z,7.2
2022-11-18T09:16:56.350Z,7.2
2022-11-18T09:18:04.887Z,6
2022-11-18T09:19:39.939Z,6
2022-11-18T09:20:21.573Z,6
2022-11-18T09:21:30.120Z,5.8
2022-11-18T09:22:38.448Z,5.8
2022-11-18T09:23:46.779Z,5.8
2022-11-18T09:24:55.336Z,4.3
2022-11-18T09:26:03.641Z,4.3
2022-11-18T09:27:16.559Z,4.3
2022-11-18T09:28:20.514Z,6.7
2022-11-18T09:29:28.850Z,6.7
2022-11-18T09:30:37.180Z,6.7
2022-11-18T09:31:45.722Z,5.6
2022-11-18T09:32:54.065Z,5.6
2022-11-18T09:34:02.406Z,5.6
2022-11-18T09:35:10.950Z,4.3
2022-11-18T09:36:19.282Z,4.3
2022-11-18T09:37:27.607Z,4.3
2022-11-18T09:38:36.149Z,4.8
2022-11-18T09:39:44.476Z,4.8
2022-11-18T09:40:52.844Z,4.8
2022-11-18T09:42:01.356Z,4.5
2022-11-18T09:43:09.676Z,4.5
2022-11-18T09:44:18.011Z,4.5
2022-11-18T09:45:26.568Z,3.8
2022-11-18T09:46:34.898Z,3.8
2022-11-18T09:47:43.225Z,3.8
2022-11-18T09:48:51.794Z,4.6
2022-11-18T09:50:03.774Z,4.6
2022-11-18T09:51:08.446Z,4.6
2022-11-18T09:52:16.981Z,4.8
2022-11-18T09:53:25.315Z,4.8
2022-11-18T09:54:33.652Z,4.8
2022-11-18T09:55:42.190Z,3.9
2022-11-18T09:56:50.585Z,3.9
2022-11-18T09:57:58.863Z,3.9
2022-11-18T09:59:07.409Z,5
2022-11-18T10:00:15.738Z,5
2022-11-18T10:01:26.290Z,5
2022-11-18T10:02:32.620Z,6.6
2022-11-18T10:03:40.955Z,6.6
2022-11-18T10:04:49.287Z,6.6
2022-11-18T10:05:57.842Z,82.300003
2022-11-18T10:07:06.202Z,82.300003
2022-11-18T10:08:14.496Z,82.300003
2022-11-18T10:09:23.049Z,6.6
2022-11-18T10:10:31.374Z,6.6
2022-11-18T10:11:41.686Z,6.6
2022-11-18T10:12:48.269Z,7.2
2022-11-18T10:13:56.590Z,7.2
2022-11-18T10:15:04.916Z,7.2
2022-11-18T10:16:13.474Z,10.6
2022-11-18T10:17:21.804Z,10.6
2022-11-18T10:18:59.515Z,10.6
2022-11-18T10:19:38.681Z,7.5
2022-11-18T10:20:47.025Z,7.5
2022-11-18T10:21:55.362Z,7.5
2022-11-18T10:23:03.903Z,7.6
2022-11-18T10:24:12.243Z,7.6
2022-11-18T10:25:20.576Z,7.6
2022-11-18T10:26:29.120Z,5.5
2022-11-18T10:27:37.449Z,5.5
2022-11-18T10:28:45.803Z,5.5
2022-11-18T10:29:54.325Z,5.6
2022-11-18T10:31:02.669Z,5.6
2022-11-18T10:32:10.992Z,5.6
2022-11-18T10:33:19.529Z,18.799999
2022-11-18T10:34:27.863Z,18.799999
2022-11-18T10:35:36.221Z,18.799999
2022-11-18T10:36:44.751Z,5.6
2022-11-18T10:38:07.118Z,5.6
2022-11-18T10:39:01.449Z,5.6
2022-11-18T10:40:09.980Z,5.9
2022-11-18T10:41:18.312Z,5.9
2022-11-18T10:42:26.656Z,5.9
2022-11-18T10:43:35.202Z,4.7
2022-11-18T10:44:43.556Z,4.7
2022-11-18T10:45:51.868Z,4.7
2022-11-18T10:47:00.412Z,4.5
2022-11-18T10:48:08.747Z,4.5
2022-11-18T10:49:17.085Z,4.5
2022-11-18T10:50:25.627Z,5
2022-11-18T10:51:33.953Z,5
2022-11-18T10:52:42.292Z,5
2022-11-18T10:53:50.830Z,5.7
2022-11-18T10:54:59.168Z,5.7
2022-11-18T10:56:07.500Z,5.7
2022-11-18T10:57:16.043Z,7.5
2022-11-18T10:58:24.433Z,7.5
2022-11-18T10:59:32.712Z,7.5
2022-11-18T11:00:41.290Z,9.4
2022-11-18T11:01:49.689Z,9.4
2022-11-18T11:02:57.920Z,9.4
2022-11-18T11:04:06.460Z,6.5
2022-11-18T11:05:14.793Z,6.5
2022-11-18T11:06:23.146Z,6.5
2022-11-18T11:07:31.787Z,6.7
2022-11-18T11:08:40.038Z,6.7
2022-11-18T11:09:48.371Z,6.7
2022-11-18T11:10:56.912Z,8.5
2022-11-18T11:12:05.249Z,8.5
2022-11-18T11:13:13.581Z,8.5
2022-11-18T11:14:22.564Z,9.5
2022-11-18T11:15:30.476Z,9.5
2022-11-18T11:16:38.827Z,9.5
2022-11-18T11:17:47.376Z,7.5
2022-11-18T11:18:55.682Z,7.5
2022-11-18T11:20:04.006Z,7.5
2022-11-18T11:21:12.545Z,7.8
2022-11-18T11:22:20.885Z,7.8
2022-11-18T11:23:29.223Z,7.8
2022-11-18T11:24:37.782Z,7.2
2022-11-18T11:28:18.431Z,6.6
2022-11-18T11:29:11.339Z,6.6
2022-11-18T11:30:19.711Z,6.6
2022-11-18T11:31:28.230Z,4.8
2022-11-18T11:32:36.587Z,4.8
2022-11-18T11:33:44.892Z,4.8
2022-11-18T11:34:53.431Z,4.6
2022-11-18T11:36:01.763Z,4.6
2022-11-18T11:37:10.087Z,4.6
2022-11-18T11:38:18.631Z,25.5
2022-11-18T11:39:26.968Z,25.5
2022-11-18T11:40:35.311Z,25.5
2022-11-18T11:41:43.844Z,6.9
2022-11-18T11:42:52.174Z,6.9
2022-11-18T11:44:00.502Z,6.9
2022-11-18T11:45:09.038Z,6.6
2022-11-18T11:46:17.366Z,6.6
2022-11-18T11:47:25.695Z,6.6
2022-11-18T11:48:34.269Z,10.9
2022-11-18T11:49:42.569Z,10.9
2022-11-18T11:50:57.327Z,10.9
2022-11-18T11:51:59.450Z,5.9
2022-11-18T11:53:07.786Z,5.9
2022-11-18T11:54:16.124Z,5.9
2022-11-18T11:55:24.654Z,6.7
2022-11-18T11:56:32.985Z,6.7
2022-11-18T11:57:41.309Z,6.7
2022-11-18T11:58:49.859Z,5.7
2022-11-18T11:59:58.198Z,5.7
2022-11-18T12:01:06.537Z,5.7
2022-11-18T12:02:15.068Z,5.7
2022-11-18T12:03:23.400Z,5.7
2022-11-18T12:04:31.776Z,5.7
2022-11-18T12:05:40.275Z,6.2
2022-11-18T12:06:48.607Z,6.2
2022-11-18T12:07:56.940Z,6.2
2022-11-18T12:09:05.490Z,7.6
2022-11-18T12:10:13.823Z,7.6
2022-11-18T12:11:22.150Z,7.6
2022-11-18T12:12:30.703Z,6.4
2022-11-18T12:13:39.045Z,6.4
2022-11-18T12:14:47.375Z,6.4
2022-11-18T12:15:55.917Z,5.9
2022-11-18T12:17:04.253Z,5.9
2022-11-18T12:18:12.584Z,5.9
2022-11-18T12:19:21.409Z,6.4
2022-11-18T12:20:29.496Z,6.4
2022-11-18T12:21:37.783Z,6.4
2022-11-18T12:22:46.326Z,9.5
2022-11-18T12:23:54.670Z,9.5
2022-11-18T12:25:03.002Z,9.5
2022-11-18T12:26:11.547Z,4.6
2022-11-18T12:27:19.878Z,4.6
2022-11-18T12:28:28.218Z,4.6
2022-11-18T12:29:36.797Z,4.8
2022-11-18T12:30:45.124Z,4.8
2022-11-18T12:31:53.455Z,4.8
2022-11-18T12:33:01.994Z,4.3
2022-11-18T12:34:10.337Z,4.3
2022-11-18T12:35:18.666Z,4.3
2022-11-18T12:36:27.216Z,4.9
2022-11-18T12:37:35.534Z,4.9
2022-11-18T12:38:43.871Z,4.9
2022-11-18T12:39:52.438Z,5.4
2022-11-18T12:41:00.754Z,5.4
2022-11-18T12:42:09.073Z,5.4
2022-11-18T12:43:17.615Z,5.1
2022-11-18T12:44:25.971Z,5.1
2022-11-18T12:45:34.294Z,5.1
2022-11-18T12:46:45.741Z,5
2022-11-18T12:47:51.166Z,5
2022-11-18T12:48:59.509Z,5
2022-11-18T12:50:08.054Z,4.6
2022-11-18T12:51:16.380Z,4.6
2022-11-18T12:52:24.745Z,4.6
2022-11-18T12:53:33.237Z,4.9
2022-11-18T12:54:41.575Z,4.9
2022-11-18T12:55:49.907Z,4.9
2022-11-18T12:56:58.452Z,5.9
2022-11-18T12:58:06.784Z,5.9
2022-11-18T12:59:15.327Z,5.9
2022-11-18T13:00:23.687Z,5.1
2022-11-18T13:01:32.017Z,5.1
2022-11-18T13:02:40.355Z,5.1
2022-11-18T13:03:48.912Z,5.5
2022-11-18T13:04:57.265Z,5.5
2022-11-18T13:06:05.592Z,5.5
2022-11-18T13:07:14.154Z,6
2022-11-18T13:08:22.486Z,6
2022-11-18T13:09:30.799Z,6
2022-11-18T13:10:39.333Z,7.8
2022-11-18T13:11:47.780Z,7.8
2022-11-18T13:12:55.996Z,7.8
2022-11-18T13:14:04.535Z,8
2022-11-18T13:15:12.868Z,8
2022-11-18T13:16:21.193Z,8
2022-11-18T13:17:29.736Z,15.5
2022-11-18T13:18:38.082Z,15.5
2022-11-18T13:19:46.408Z,15.5
2022-11-18T13:20:54.950Z,11.5
2022-11-18T13:22:03.278Z,11.5
2022-11-18T13:23:11.611Z,11.5
2022-11-18T13:24:20.181Z,24.9
2022-11-18T13:25:28.491Z,24.9
2022-11-18T13:26:36.818Z,24.9
2022-11-18T13:27:45.366Z,13.5
2022-11-18T13:28:53.703Z,13.5
2022-11-18T13:30:02.045Z,13.5
2022-11-18T13:31:10.582Z,14.4
2022-11-18T13:32:18.930Z,14.4
2022-11-18T13:33:27.259Z,14.4
2022-11-18T13:34:35.815Z,10.6
2022-11-18T13:35:44.148Z,10.6
2022-11-18T13:36:52.479Z,10.6
2022-11-18T13:38:01.022Z,8.4
2022-11-18T13:39:09.391Z,8.4
2022-11-18T13:40:17.742Z,8.4
2022-11-18T13:41:26.258Z,8.2
2022-11-18T13:42:34.589Z,8.2
2022-11-18T13:43:42.932Z,8.2
2022-11-18T13:44:51.467Z,8.5
2022-11-18T13:45:59.798Z,8.5
2022-11-18T13:47:08.127Z,8.5
2022-11-18T13:48:16.665Z,7.1
2022-11-18T13:49:25.035Z,7.1
2022-11-18T13:50:33.363Z,7.1
2022-11-18T13:51:41.898Z,10.3
2022-11-18T13:52:50.233Z,10.3
2022-11-18T13:53:58.571Z,10.3
2022-11-18T13:55:07.109Z,7.2
2022-11-18T13:56:15.497Z,7.2
2022-11-18T13:57:23.785Z,7.2
2022-11-18T13:58:36.704Z,8.7
2022-11-18T13:59:40.673Z,8.7
2022-11-18T14:00:49.034Z,8.7
2022-11-18T14:01:57.540Z,7.8
2022-11-18T14:03:05.863Z,7.8
2022-11-18T14:04:14.209Z,7.8
2022-11-18T14:05:22.747Z,7.8
2022-11-18T14:06:31.107Z,7.8
2022-11-18T14:07:39.452Z,7.8
2022-11-18T14:08:47.975Z,8.9
2022-11-18T14:09:56.306Z,8.9
2022-11-18T14:11:04.638Z,8.9
2022-11-18T14:12:13.225Z,8.8
2022-11-18T14:13:21.536Z,8.8
2022-11-18T14:14:29.875Z,8.8
2022-11-18T14:15:43.468Z,7.8
2022-11-18T14:16:46.757Z,7.8
2022-11-18T14:17:55.085Z,7.8
2022-11-18T14:19:03.629Z,9
2022-11-18T14:20:11.963Z,9
2022-11-18T14:21:20.291Z,9
2022-11-18T14:22:28.847Z,6.6
2022-11-18T14:23:37.174Z,6.6
2022-11-18T14:24:45.520Z,6.6
2022-11-18T14:25:54.061Z,7.6
2022-11-18T14:27:02.387Z,7.6
2022-11-18T14:28:10.757Z,7.6
2022-11-18T14:29:19.495Z,6
2022-11-18T15:03:55.964Z,0
2022-11-18T15:05:04.259Z,0
2022-11-18T15:06:12.592Z,0
2022-11-18T15:07:23.655Z,2.7
2022-11-18T15:08:29.459Z,2.7
2022-11-18T15:09:37.792Z,2.7
2022-11-18T15:10:46.325Z,3
2022-11-18T15:11:54.664Z,3
2022-11-18T15:13:02.994Z,3
2022-11-18T15:14:11.538Z,3.8
2022-11-18T15:15:19.876Z,3.8
2022-11-18T15:16:28.191Z,3.8
2022-11-18T15:17:36.735Z,3.3
2022-11-18T15:18:45.071Z,3.3
2022-11-18T15:19:53.419Z,3.3
2022-11-18T15:21:01.932Z,2.5
2022-11-18T15:22:10.267Z,2.5
2022-11-18T15:23:18.593Z,2.5
2022-11-18T15:24:27.171Z,2.3
2022-11-18T15:25:35.501Z,2.3
2022-11-18T15:26:43.846Z,2.3
2022-11-18T15:27:52.376Z,2.4
2022-11-18T15:29:00.712Z,2.4
2022-11-18T15:30:09.036Z,2.4
2022-11-18T15:31:17.575Z,6.4
2022-11-18T15:32:25.909Z,6.4
2022-11-18T15:33:34.236Z,6.4
2022-11-18T15:34:42.793Z,5.2
2022-11-18T15:35:51.142Z,5.2
2022-11-18T15:36:59.451Z,5.2
2022-11-18T15:38:07.993Z,4.7
2022-11-18T15:39:16.326Z,4.7
2022-11-18T15:40:24.660Z,4.7
2022-11-18T15:41:33.195Z,3.5
2022-11-18T15:42:48.940Z,3.5
2022-11-18T15:43:49.855Z,3.5
2022-11-18T15:44:58.390Z,4.5
2022-11-18T15:46:06.729Z,4.5
2022-11-18T15:47:15.055Z,4.5
2022-11-18T15:48:23.588Z,6.1
2022-11-18T15:49:31.950Z,6.1
2022-11-18T15:50:40.250Z,6.1
2022-11-18T15:51:48.812Z,6
2022-11-18T15:52:57.108Z,6
2022-11-18T15:54:05.446Z,6
2022-11-18T15:55:13.990Z,5.2
2022-11-18T15:56:22.330Z,5.2
2022-11-18T15:57:30.659Z,5.2
2022-11-18T15:58:39.778Z,6.9
2022-11-18T15:59:47.538Z,6.9
2022-11-18T16:00:55.881Z,6.9
2022-11-18T16:02:04.401Z,5.8
2022-11-18T16:03:12.721Z,5.8
2022-11-18T16:04:21.451Z,5.8
2022-11-18T16:05:29.628Z,6.1
2022-11-18T16:06:37.962Z,6.1
2022-11-18T16:07:48.242Z,6.1
2022-11-18T16:08:59.436Z,5
2022-11-18T16:10:03.209Z,5
2022-11-18T16:11:11.499Z,5
2022-11-18T16:12:20.041Z,5.6
2022-11-18T16:13:28.369Z,5.6
2022-11-18T16:14:36.711Z,5.6
2022-11-18T16:15:45.253Z,5.4
2022-11-18T16:16:53.576Z,5.4
2022-11-18T16:18:01.913Z,5.4
2022-11-18T16:19:10.468Z,5.3
2022-11-18T16:20:18.804Z,5.3